createdAt,value
2023-03-30T00:01:17.455Z,13.10
2023-03-30T00:03:46.136Z,13.20
2023-03-30T00:06:21.094Z,13.30
2023-03-30T00:08:49.035Z,13.20
2023-03-30T00:11:17.447Z,13.10
2023-03-30T00:13:45.022Z,13.00
2023-03-30T00:16:14.408Z,12.90
2023-03-30T00:18:41.466Z,13.00
2023-03-30T00:21:10.091Z,12.90
2023-03-30T00:23:37.642Z,13.00
2023-03-30T00:26:05.194Z,13.00
2023-03-30T00:28:32.457Z,13.10
2023-03-30T00:30:59.428Z,13.10
2023-03-30T00:33:41.514Z,13.10
2023-03-30T00:36:11.705Z,13.20
2023-03-30T00:38:38.573Z,13.30
2023-03-30T00:41:05.708Z,13.30
2023-03-30T00:43:33.763Z,13.40
2023-03-30T00:46:01.438Z,13.40
2023-03-30T00:48:32.439Z,13.50
2023-03-30T00:51:05.103Z,13.70
2023-03-30T00:53:35.846Z,13.80
2023-03-30T00:56:05.054Z,13.90
2023-03-30T00:58:32.440Z,14.20
2023-03-30T01:01:02.400Z,14.30
2023-03-30T01:03:37.396Z,14.40
2023-03-30T01:06:07.647Z,14.40
2023-03-30T01:08:35.771Z,14.50
2023-03-30T01:11:03.647Z,14.50
2023-03-30T01:13:33.337Z,14.60
2023-03-30T01:16:15.545Z,14.60
2023-03-30T01:19:01.395Z,14.60
2023-03-30T01:22:01.645Z,14.50
2023-03-30T01:24:42.988Z,14.50
2023-03-30T01:27:39.390Z,14.60
2023-03-30T01:30:30.814Z,14.60
2023-03-30T01:33:12.840Z,14.60
2023-03-30T01:35:39.712Z,14.50
2023-03-30T01:38:42.253Z,14.40
2023-03-30T01:41:22.623Z,14.30
2023-03-30T01:44:14.194Z,14.50
2023-03-30T01:46:49.802Z,14.50
2023-03-30T01:49:24.933Z,14.60
2023-03-30T01:52:12.206Z,14.60
2023-03-30T01:54:46.011Z,14.60
2023-03-30T01:57:17.425Z,14.60
2023-03-30T01:59:50.504Z,14.60
2023-03-30T02:02:20.707Z,14.50
2023-03-30T02:04:49.176Z,14.40
2023-03-30T02:07:23.804Z,14.30
2023-03-30T02:09:53.628Z,14.30
2023-03-30T02:12:22.366Z,14.30
2023-03-30T02:14:49.845Z,14.30
2023-03-30T02:17:23.216Z,14.30
2023-03-30T02:19:50.916Z,14.30
2023-03-30T02:22:20.195Z,14.30
2023-03-30T02:24:49.956Z,14.30
2023-03-30T02:27:17.469Z,14.30
2023-03-30T02:29:46.227Z,14.30
2023-03-30T02:32:23.049Z,14.20
2023-03-30T02:34:49.804Z,14.10
2023-03-30T02:37:29.092Z,14.10
2023-03-30T02:40:19.470Z,14.00
2023-03-30T02:42:55.623Z,14.00
2023-03-30T02:45:43.035Z,13.90
2023-03-30T02:48:21.899Z,14.00
2023-03-30T02:51:04.094Z,14.00
2023-03-30T02:54:10.229Z,13.90
2023-03-30T02:56:49.855Z,13.80
2023-03-30T02:59:30.567Z,13.90
2023-03-30T03:02:20.263Z,14.00
2023-03-30T03:04:50.034Z,14.00
2023-03-30T03:07:18.722Z,13.90
2023-03-30T03:09:46.106Z,13.80
2023-03-30T03:12:13.185Z,13.70
2023-03-30T03:14:40.273Z,13.80
2023-03-30T03:17:07.311Z,13.90
2023-03-30T03:19:34.289Z,13.90
2023-03-30T03:22:01.359Z,13.90
2023-03-30T03:24:28.251Z,14.00
2023-03-30T03:26:55.096Z,14.00
2023-03-30T03:29:23.180Z,14.00
2023-03-30T03:31:50.001Z,14.00
2023-03-30T03:34:18.217Z,14.10
2023-03-30T03:36:45.063Z,14.20
2023-03-30T03:39:12.063Z,14.20
2023-03-30T03:41:38.907Z,14.20
2023-03-30T03:44:05.811Z,14.30
2023-03-30T03:46:32.650Z,14.20
2023-03-30T03:48:59.480Z,14.20
2023-03-30T03:51:26.453Z,14.20
2023-03-30T03:53:54.040Z,14.40
2023-03-30T03:56:21.517Z,14.30
2023-03-30T03:58:48.377Z,14.30
2023-03-30T04:01:15.436Z,14.30
2023-03-30T04:03:42.315Z,14.40
2023-03-30T04:06:09.971Z,14.40
2023-03-30T04:08:37.277Z,14.40
2023-03-30T04:11:12.256Z,14.40
2023-03-30T04:13:40.484Z,14.20
2023-03-30T04:16:08.244Z,14.10
2023-03-30T04:18:35.371Z,13.90
2023-03-30T04:21:05.691Z,13.90
2023-03-30T04:23:34.103Z,13.90
2023-03-30T04:26:02.085Z,13.90
2023-03-30T04:28:33.836Z,13.90
2023-03-30T04:31:03.434Z,14.00
2023-03-30T04:33:35.120Z,14.00
2023-03-30T04:36:02.254Z,14.00
2023-03-30T04:38:30.229Z,14.00
2023-03-30T04:40:57.638Z,14.00
2023-03-30T04:43:24.989Z,14.10
2023-03-30T04:45:56.755Z,14.00
2023-03-30T04:48:24.573Z,13.90
2023-03-30T04:50:51.747Z,14.00
2023-03-30T04:53:19.181Z,14.00
2023-03-30T04:55:50.805Z,14.00
2023-03-30T04:58:17.977Z,13.90
2023-03-30T05:00:44.814Z,13.90
2023-03-30T05:03:12.388Z,13.80
2023-03-30T05:05:39.423Z,13.80
2023-03-30T05:10:31.685Z,13.80
2023-03-30T05:12:58.615Z,13.70
2023-03-30T05:15:25.487Z,13.70
2023-03-30T05:17:52.397Z,13.70
2023-03-30T05:20:19.257Z,13.70
2023-03-30T05:22:47.198Z,13.60
2023-03-30T05:25:14.171Z,13.60
2023-03-30T05:27:41.025Z,13.60
2023-03-30T05:30:08.434Z,13.60
2023-03-30T05:32:35.495Z,13.70
2023-03-30T05:35:02.412Z,13.60
2023-03-30T05:37:29.285Z,13.60
2023-03-30T05:39:56.367Z,13.60
2023-03-30T05:42:23.261Z,13.70
2023-03-30T05:44:50.224Z,13.70
2023-03-30T05:47:17.101Z,13.70
2023-03-30T05:49:44.173Z,13.70
2023-03-30T05:52:11.756Z,13.70
2023-03-30T05:54:38.623Z,13.70
2023-03-30T05:57:05.547Z,13.70
2023-03-30T05:59:33.270Z,13.70
2023-03-30T06:02:00.859Z,13.70
2023-03-30T06:04:27.911Z,13.90
2023-03-30T06:06:54.834Z,14.20
2023-03-30T06:09:23.417Z,14.30
2023-03-30T06:11:50.358Z,14.40
2023-03-30T06:14:17.474Z,14.60
2023-03-30T06:16:44.596Z,14.80
2023-03-30T06:19:11.855Z,15.00
2023-03-30T06:21:38.714Z,15.00
2023-03-30T06:24:05.707Z,15.00
2023-03-30T06:26:32.730Z,14.90
2023-03-30T06:28:59.724Z,15.10
2023-03-30T06:31:26.740Z,15.80
2023-03-30T06:33:53.714Z,16.60
2023-03-30T06:36:20.648Z,17.30
2023-03-30T06:38:48.520Z,17.40
2023-03-30T06:41:15.547Z,17.40
2023-03-30T06:43:42.411Z,17.70
2023-03-30T06:46:09.694Z,18.50
2023-03-30T06:48:36.911Z,18.60
2023-03-30T06:51:04.550Z,17.80
2023-03-30T06:53:31.698Z,17.00
2023-03-30T06:56:00.115Z,16.50
2023-03-30T06:58:28.407Z,16.30
2023-03-30T07:00:55.589Z,16.10
2023-03-30T07:03:22.544Z,15.90
2023-03-30T07:05:52.716Z,15.50
2023-03-30T07:08:20.560Z,15.00
2023-03-30T07:10:48.974Z,14.70
2023-03-30T07:13:19.181Z,14.50
2023-03-30T07:15:46.919Z,14.40
2023-03-30T07:18:14.837Z,14.30
2023-03-30T07:20:42.007Z,14.30
2023-03-30T07:23:09.053Z,14.20
2023-03-30T07:25:36.101Z,14.10
2023-03-30T07:28:06.350Z,14.20
2023-03-30T07:30:34.090Z,14.50
2023-03-30T07:33:01.194Z,14.60
2023-03-30T07:35:28.190Z,15.50
2023-03-30T07:38:02.903Z,16.20
2023-03-30T07:40:30.508Z,15.70
2023-03-30T07:42:57.506Z,15.20
2023-03-30T07:45:24.342Z,15.80
2023-03-30T07:47:51.448Z,17.00
2023-03-30T07:50:18.368Z,17.60
2023-03-30T07:52:45.425Z,17.60
2023-03-30T07:55:12.259Z,17.30
2023-03-30T07:57:39.263Z,17.30
2023-03-30T08:00:08.298Z,18.20
2023-03-30T08:02:35.725Z,18.70
2023-03-30T08:05:03.048Z,19.60
2023-03-30T08:07:30.330Z,19.80
2023-03-30T08:09:57.169Z,19.70
2023-03-30T08:12:24.037Z,20.10
2023-03-30T08:14:50.909Z,20.00
2023-03-30T08:17:19.328Z,19.30
2023-03-30T08:19:46.286Z,18.70
2023-03-30T08:22:13.115Z,17.90
2023-03-30T08:24:39.962Z,17.90
2023-03-30T08:27:07.253Z,17.90
2023-03-30T08:29:34.157Z,18.20
2023-03-30T08:32:01.276Z,19.00
2023-03-30T08:34:29.237Z,19.80
2023-03-30T08:36:58.302Z,19.80
2023-03-30T08:39:25.425Z,19.70
2023-03-30T08:42:12.857Z,19.60
2023-03-30T08:44:42.069Z,18.90
2023-03-30T08:47:14.487Z,17.70
2023-03-30T08:49:46.183Z,17.40
2023-03-30T08:52:22.742Z,16.90
2023-03-30T08:54:52.259Z,16.40
2023-03-30T08:57:27.751Z,16.30
2023-03-30T09:00:20.221Z,16.30
2023-03-30T09:02:51.696Z,16.80
2023-03-30T09:05:32.597Z,17.10
2023-03-30T09:10:46.946Z,16.90
2023-03-30T09:13:22.863Z,16.50
2023-03-30T09:15:57.183Z,16.00
2023-03-30T09:18:39.364Z,15.60
2023-03-30T09:21:09.310Z,15.70
2023-03-30T09:23:37.784Z,15.90
2023-03-30T09:26:13.390Z,15.90
2023-03-30T09:29:05.757Z,15.70
2023-03-30T09:31:47.735Z,15.50
2023-03-30T09:34:34.202Z,15.30
2023-03-30T09:37:13.378Z,15.30
2023-03-30T09:39:41.492Z,15.30
2023-03-30T09:42:13.777Z,15.30
2023-03-30T09:44:48.190Z,15.40
2023-03-30T09:47:25.215Z,15.30
2023-03-30T09:50:04.852Z,15.40
2023-03-30T09:52:37.375Z,15.50
2023-03-30T09:55:30.171Z,15.60
2023-03-30T09:58:20.106Z,15.60
2023-03-30T10:01:00.823Z,15.60
2023-03-30T10:03:28.229Z,15.60
2023-03-30T10:06:03.169Z,15.50
2023-03-30T10:08:31.207Z,15.50
2023-03-30T10:10:59.777Z,15.80
2023-03-30T10:13:36.774Z,15.90
2023-03-30T10:16:12.525Z,16.20
2023-03-30T10:18:42.246Z,16.30
2023-03-30T10:21:17.652Z,16.50
2023-03-30T10:23:47.497Z,16.80
2023-03-30T10:26:19.357Z,16.70
2023-03-30T10:29:04.739Z,16.90
2023-03-30T10:31:35.217Z,16.70
2023-03-30T10:34:03.643Z,16.60
2023-03-30T10:36:38.517Z,16.20
2023-03-30T10:39:28.019Z,16.20
2023-03-30T10:41:58.578Z,16.10
2023-03-30T10:44:43.430Z,15.90
2023-03-30T10:47:24.317Z,15.90
2023-03-30T10:50:16.381Z,16.20
2023-03-30T10:52:58.443Z,16.00
2023-03-30T10:56:03.257Z,16.00
2023-03-30T10:58:40.067Z,16.50
2023-03-30T11:01:26.956Z,16.90
2023-03-30T11:04:16.131Z,17.20
2023-03-30T11:06:48.877Z,17.40
2023-03-30T11:09:21.440Z,17.30
2023-03-30T11:11:51.802Z,17.10
2023-03-30T11:14:41.352Z,16.90
2023-03-30T11:17:28.401Z,16.80
2023-03-30T11:20:01.944Z,16.90
2023-03-30T11:22:41.810Z,17.30
2023-03-30T11:25:44.853Z,17.50
2023-03-30T11:28:20.748Z,17.30
2023-03-30T11:30:51.312Z,17.10
2023-03-30T11:33:34.640Z,17.00
2023-03-30T11:36:17.791Z,16.90
2023-03-30T11:38:48.142Z,16.60
2023-03-30T11:41:23.023Z,16.20
2023-03-30T11:43:55.987Z,16.00
2023-03-30T11:46:41.205Z,15.80
2023-03-30T11:49:34.040Z,15.80
2023-03-30T11:52:23.973Z,15.70
2023-03-30T11:55:05.822Z,15.60
2023-03-30T11:57:32.731Z,15.50
2023-03-30T12:00:28.086Z,15.50
2023-03-30T12:03:10.021Z,15.60
2023-03-30T12:05:48.816Z,15.40
2023-03-30T12:10:51.749Z,15.00
2023-03-30T12:13:21.827Z,14.50
2023-03-30T12:16:04.773Z,13.70
2023-03-30T12:19:11.268Z,13.30
2023-03-30T12:21:52.426Z,13.10
2023-03-30T12:24:37.008Z,12.90
2023-03-30T12:27:06.246Z,12.70
2023-03-30T12:30:23.539Z,12.60
2023-03-30T12:33:12.286Z,12.60
2023-03-30T12:35:48.375Z,12.80
2023-03-30T12:38:25.865Z,13.10
2023-03-30T12:41:04.878Z,13.30
2023-03-30T12:43:48.541Z,13.40
2023-03-30T12:46:36.165Z,13.50
2023-03-30T12:49:42.761Z,13.60
2023-03-30T12:52:09.872Z,13.60
2023-03-30T12:54:49.207Z,13.70
2023-03-30T12:57:38.312Z,13.80
2023-03-30T13:00:23.681Z,14.00
2023-03-30T13:03:28.557Z,14.30
2023-03-30T13:05:58.412Z,14.40
2023-03-30T13:08:36.818Z,14.50
2023-03-30T13:11:42.774Z,14.70
2023-03-30T13:14:26.488Z,15.00
2023-03-30T13:16:53.510Z,15.30
2023-03-30T13:19:26.917Z,15.50
2023-03-30T13:22:19.271Z,15.50
2023-03-30T13:24:57.962Z,15.60
2023-03-30T13:27:29.708Z,15.80
2023-03-30T13:30:02.433Z,15.80
2023-03-30T13:32:58.804Z,15.80
2023-03-30T13:35:47.384Z,15.70
2023-03-30T13:38:28.755Z,15.50
2023-03-30T13:41:18.160Z,15.40
2023-03-30T13:44:12.207Z,15.40
2023-03-30T13:46:52.063Z,15.50
2023-03-30T13:49:37.506Z,15.70
2023-03-30T13:52:18.352Z,15.60
2023-03-30T13:54:47.144Z,15.70
2023-03-30T13:57:20.923Z,15.80
2023-03-30T13:59:54.172Z,16.00
2023-03-30T14:02:23.816Z,16.10
2023-03-30T14:04:50.750Z,16.30
2023-03-30T14:07:20.890Z,16.40
2023-03-30T14:10:13.862Z,16.50
2023-03-30T14:12:41.835Z,16.40
2023-03-30T14:15:21.972Z,16.40
2023-03-30T14:17:51.745Z,16.40
2023-03-30T14:20:46.898Z,16.40
2023-03-30T14:23:38.946Z,16.10
2023-03-30T14:26:14.725Z,16.00
2023-03-30T14:28:42.697Z,16.00
2023-03-30T14:31:21.259Z,15.90
2023-03-30T14:33:48.739Z,16.00
2023-03-30T14:36:18.430Z,15.90
2023-03-30T14:38:50.559Z,15.90
2023-03-30T14:41:28.038Z,15.90
2023-03-30T14:44:05.043Z,15.90
2023-03-30T14:46:46.821Z,15.90
2023-03-30T14:49:34.514Z,16.00
2023-03-30T14:52:04.663Z,16.00
2023-03-30T14:54:31.782Z,15.90
2023-03-30T14:57:01.062Z,15.80
2023-03-30T14:59:29.145Z,15.80
2023-03-30T15:01:56.926Z,15.90
2023-03-30T15:04:35.895Z,15.70
2023-03-30T15:07:03.477Z,15.50
2023-03-30T15:09:37.947Z,15.30
2023-03-30T15:12:06.194Z,15.10
2023-03-30T15:14:39.857Z,15.00
2023-03-30T15:17:14.542Z,15.00
2023-03-30T15:19:42.169Z,15.00
2023-03-30T15:22:37.790Z,14.90
2023-03-30T15:25:31.019Z,14.90
2023-03-30T15:28:13.217Z,14.80
2023-03-30T15:30:44.033Z,15.00
2023-03-30T15:33:20.885Z,15.20
2023-03-30T15:35:51.913Z,15.40
2023-03-30T15:38:27.732Z,15.50
2023-03-30T15:40:54.610Z,15.70
2023-03-30T15:43:31.106Z,15.80
2023-03-30T15:46:08.772Z,15.70
2023-03-30T15:48:48.123Z,15.60
2023-03-30T15:51:22.744Z,15.30
2023-03-30T15:54:03.289Z,15.10
2023-03-30T15:56:34.878Z,15.10
2023-03-30T15:59:02.002Z,15.10
2023-03-30T16:01:51.459Z,15.00
2023-03-30T16:04:20.594Z,15.00
2023-03-30T16:06:47.812Z,14.80
2023-03-30T16:09:16.147Z,14.80
2023-03-30T16:11:45.393Z,14.70
2023-03-30T16:14:20.564Z,14.70
2023-03-30T16:16:48.598Z,14.60
2023-03-30T16:19:19.844Z,14.60
2023-03-30T16:21:47.198Z,14.60
2023-03-30T16:24:14.302Z,14.60
2023-03-30T16:26:41.523Z,14.70
2023-03-30T16:29:22.923Z,14.60
2023-03-30T16:31:51.829Z,14.40
2023-03-30T16:34:19.983Z,14.30
2023-03-30T16:36:50.496Z,14.20
2023-03-30T16:39:26.821Z,14.20
2023-03-30T16:41:54.725Z,14.00
2023-03-30T16:44:23.423Z,13.90
2023-03-30T16:46:51.605Z,13.90
2023-03-30T16:49:24.880Z,13.90
2023-03-30T16:51:55.359Z,13.80
2023-03-30T16:54:31.967Z,13.70
2023-03-30T16:57:01.755Z,13.60
2023-03-30T16:59:30.896Z,13.40
2023-03-30T17:01:59.277Z,13.30
2023-03-30T17:04:26.977Z,13.20
2023-03-30T17:06:55.086Z,13.20
2023-03-30T17:09:22.471Z,13.20
2023-03-30T17:11:50.368Z,13.10
2023-03-30T17:14:17.786Z,13.20
2023-03-30T17:16:44.705Z,13.10
2023-03-30T17:19:15.306Z,13.20
2023-03-30T17:21:46.320Z,13.20
2023-03-30T17:24:15.340Z,13.20
2023-03-30T17:26:42.829Z,13.20
2023-03-30T17:29:10.713Z,13.20
2023-03-30T17:31:39.084Z,13.10
2023-03-30T17:34:07.402Z,13.10
2023-03-30T17:36:34.449Z,13.10
2023-03-30T17:39:05.019Z,13.20
2023-03-30T17:41:33.804Z,13.20
2023-03-30T17:44:00.862Z,13.20
2023-03-30T17:46:28.461Z,13.10
2023-03-30T17:48:55.416Z,13.00
2023-03-30T17:51:22.505Z,12.90
2023-03-30T17:53:49.329Z,12.80
2023-03-30T17:56:16.188Z,12.70
2023-03-30T17:58:43.050Z,12.60
2023-03-30T18:01:12.626Z,12.60
2023-03-30T18:03:40.151Z,12.60
2023-03-30T18:06:07.716Z,12.60
2023-03-30T18:08:34.724Z,12.60
2023-03-30T18:11:02.092Z,12.60
2023-03-30T18:13:30.656Z,12.60
2023-03-30T18:15:59.471Z,12.50
2023-03-30T18:18:28.674Z,12.40
2023-03-30T18:20:58.138Z,12.40
2023-03-30T18:23:25.636Z,12.30
2023-03-30T18:25:52.609Z,12.20
2023-03-30T18:28:24.974Z,12.20
2023-03-30T18:30:57.570Z,12.20
2023-03-30T18:33:25.386Z,12.10
2023-03-30T18:35:53.714Z,12.00
2023-03-30T18:38:21.799Z,12.00
2023-03-30T18:40:57.729Z,12.00
2023-03-30T18:43:26.749Z,12.10
2023-03-30T18:45:54.593Z,12.20
2023-03-30T18:48:21.890Z,12.20
2023-03-30T18:50:51.059Z,12.10
2023-03-30T18:53:20.524Z,12.20
2023-03-30T18:55:53.386Z,12.10
2023-03-30T18:58:26.555Z,12.20
2023-03-30T19:00:54.738Z,12.20
2023-03-30T19:03:23.142Z,12.20
2023-03-30T19:05:50.574Z,12.20
2023-03-30T19:08:23.374Z,12.30
2023-03-30T19:10:53.404Z,12.20
2023-03-30T19:13:21.728Z,12.20
2023-03-30T19:15:50.969Z,12.20
2023-03-30T19:18:18.596Z,12.20
2023-03-30T19:20:46.175Z,12.20
2023-03-30T19:23:14.850Z,12.20
2023-03-30T19:25:43.337Z,12.30
2023-03-30T19:28:11.016Z,12.40
2023-03-30T19:30:39.560Z,12.40
2023-03-30T19:33:13.289Z,12.40
2023-03-30T19:35:41.574Z,12.30
2023-03-30T19:38:08.874Z,12.20
2023-03-30T19:40:38.322Z,12.20
2023-03-30T19:43:05.465Z,12.10
2023-03-30T19:45:32.436Z,12.00
2023-03-30T19:47:59.647Z,12.00
2023-03-30T19:50:27.967Z,11.90
2023-03-30T19:52:56.468Z,11.90
2023-03-30T19:55:23.447Z,11.90
2023-03-30T19:57:50.318Z,11.80
2023-03-30T20:00:18.750Z,11.70
2023-03-30T20:02:51.760Z,11.70
2023-03-30T20:05:19.762Z,11.70
2023-03-30T20:07:47.474Z,11.70
2023-03-30T20:10:19.030Z,11.70
2023-03-30T20:12:46.921Z,11.60
2023-03-30T20:15:14.832Z,11.60
2023-03-30T20:17:42.247Z,11.60
2023-03-30T20:20:12.809Z,11.60
2023-03-30T20:22:43.008Z,11.50
2023-03-30T20:25:12.887Z,11.50
2023-03-30T20:27:40.389Z,11.50
2023-03-30T20:30:11.450Z,11.50
2023-03-30T20:32:38.806Z,11.50
2023-03-30T20:35:07.631Z,11.50
2023-03-30T20:37:34.570Z,11.40
2023-03-30T20:40:05.061Z,11.50
2023-03-30T20:42:32.623Z,11.50
2023-03-30T20:45:01.302Z,11.40
2023-03-30T20:47:30.399Z,11.60
2023-03-30T20:49:58.430Z,11.60
2023-03-30T20:52:25.671Z,11.60
2023-03-30T20:54:53.014Z,11.50
2023-03-30T20:57:21.355Z,11.50
2023-03-30T20:59:48.792Z,11.40
2023-03-30T21:02:16.650Z,11.40
2023-03-30T21:04:44.679Z,11.30
2023-03-30T21:07:12.459Z,11.40
2023-03-30T21:09:40.681Z,11.30
2023-03-30T21:12:08.758Z,11.30
2023-03-30T21:14:35.671Z,11.30
2023-03-30T21:17:02.562Z,11.20
2023-03-30T21:19:29.501Z,11.20
2023-03-30T21:21:56.629Z,11.20
2023-03-30T21:24:23.576Z,11.20
2023-03-30T21:26:50.972Z,11.20
2023-03-30T21:29:18.006Z,11.20
2023-03-30T21:31:44.935Z,11.20
2023-03-30T21:34:12.816Z,11.30
2023-03-30T21:36:39.925Z,11.30
2023-03-30T21:39:07.093Z,11.30
2023-03-30T21:41:33.997Z,11.40
2023-03-30T21:44:01.562Z,11.40
2023-03-30T21:46:29.321Z,11.50
2023-03-30T21:48:56.235Z,11.50
2023-03-30T21:51:26.511Z,11.50
2023-03-30T21:53:54.726Z,11.60
2023-03-30T21:56:23.751Z,11.60
2023-03-30T21:58:51.629Z,11.60
2023-03-30T22:01:20.124Z,11.60
2023-03-30T22:03:47.522Z,11.60
2023-03-30T22:06:16.336Z,11.60
2023-03-30T22:08:45.482Z,11.60
2023-03-30T22:11:21.352Z,11.60
2023-03-30T22:13:49.047Z,11.50
2023-03-30T22:16:19.114Z,11.60
2023-03-30T22:18:46.888Z,11.60
2023-03-30T22:21:17.406Z,11.50
2023-03-30T22:23:45.271Z,11.40
2023-03-30T22:26:13.215Z,11.40
2023-03-30T22:28:40.833Z,11.40
2023-03-30T22:31:14.295Z,11.30
2023-03-30T22:33:41.706Z,11.30
2023-03-30T22:36:23.397Z,11.30
2023-03-30T22:38:51.799Z,11.30
2023-03-30T22:41:24.048Z,11.20
2023-03-30T22:43:52.588Z,11.20
2023-03-30T22:46:19.603Z,11.00
2023-03-30T22:48:49.110Z,11.00
2023-03-30T22:51:23.619Z,10.90
2023-03-30T22:53:50.666Z,10.90
2023-03-30T22:56:17.546Z,10.90
2023-03-30T22:58:44.376Z,10.90
2023-03-30T23:01:11.313Z,10.80
2023-03-30T23:03:38.686Z,10.80
2023-03-30T23:06:05.738Z,10.80
2023-03-30T23:08:32.697Z,10.80
2023-03-30T23:11:05.233Z,10.90
2023-03-30T23:13:37.793Z,10.90
2023-03-30T23:16:06.992Z,10.90
2023-03-30T23:18:35.055Z,10.90
2023-03-30T23:21:06.811Z,10.90
2023-03-30T23:23:38.328Z,11.00
2023-03-30T23:26:09.508Z,11.00
2023-03-30T23:28:42.026Z,11.00
2023-03-30T23:31:15.072Z,11.00
2023-03-30T23:33:43.041Z,11.10
2023-03-30T23:36:13.957Z,11.00
2023-03-30T23:38:41.604Z,11.00
2023-03-30T23:41:08.992Z,11.00
2023-03-30T23:43:35.853Z,11.00
2023-03-30T23:46:02.758Z,11.00
2023-03-30T23:48:29.674Z,11.00
2023-03-30T23:50:57.695Z,11.10
2023-03-30T23:53:26.743Z,11.10
2023-03-30T23:55:53.967Z,11.10
2023-03-30T23:58:20.849Z,11.00
